sensor_id;sensor_type;location;lat;lon;timestamp;P1;durP1;ratioP1;P2;durP2;ratioP2
5357;SDS011;2702;51.014;7.170;2022-08-21T00:00:42;10.40;;;8.07;;
5357;SDS011;2702;51.014;7.170;2022-08-21T00:03:09;8.40;;;7.50;;
5357;SDS011;2702;51.014;7.170;2022-08-21T00:05:37;11.47;;;6.90;;
5357;SDS011;2702;51.014;7.170;2022-08-21T00:08:07;12.00;;;8.43;;
5357;SDS011;2702;51.014;7.170;2022-08-21T00:10:33;12.57;;;8.43;;
5357;SDS011;2702;51.014;7.170;2022-08-21T00:13:03;9.70;;;7.60;;
5357;SDS011;2702;51.014;7.170;2022-08-21T00:15:30;8.30;;;7.07;;
5357;SDS011;2702;51.014;7.170;2022-08-21T00:17:57;7.30;;;6.63;;
5357;SDS011;2702;51.014;7.170;2022-08-21T00:20:24;10.53;;;8.47;;
5357;SDS011;2702;51.014;7.170;2022-08-21T00:22:50;11.47;;;8.67;;
5357;SDS011;2702;51.014;7.170;2022-08-21T00:25:17;13.03;;;9.80;;
5357;SDS011;2702;51.014;7.170;2022-08-21T00:27:44;12.10;;;8.60;;
5357;SDS011;2702;51.014;7.170;2022-08-21T00:30:12;10.53;;;9.27;;
5357;SDS011;2702;51.014;7.170;2022-08-21T00:32:40;11.73;;;10.23;;
5357;SDS011;2702;51.014;7.170;2022-08-21T00:35:08;11.40;;;9.77;;
5357;SDS011;2702;51.014;7.170;2022-08-21T00:37:39;9.50;;;8.60;;
5357;SDS011;2702;51.014;7.170;2022-08-21T00:40:07;11.13;;;9.50;;
5357;SDS011;2702;51.014;7.170;2022-08-21T00:42:36;11.23;;;10.17;;
5357;SDS011;2702;51.014;7.170;2022-08-21T00:45:02;13.03;;;10.10;;
5357;SDS011;2702;51.014;7.170;2022-08-21T00:47:34;11.20;;;10.30;;
5357;SDS011;2702;51.014;7.170;2022-08-21T00:50:00;10.57;;;9.50;;
5357;SDS011;2702;51.014;7.170;2022-08-21T00:52:28;10.17;;;9.03;;
5357;SDS011;2702;51.014;7.170;2022-08-21T00:54:57;9.93;;;8.93;;
5357;SDS011;2702;51.014;7.170;2022-08-21T00:57:42;9.47;;;8.57;;
5357;SDS011;2702;51.014;7.170;2022-08-21T01:00:15;11.40;;;9.60;;
5357;SDS011;2702;51.014;7.170;2022-08-21T01:02:43;10.53;;;8.77;;
5357;SDS011;2702;51.014;7.170;2022-08-21T01:05:10;9.00;;;8.10;;
5357;SDS011;2702;51.014;7.170;2022-08-21T01:07:36;11.57;;;8.97;;
5357;SDS011;2702;51.014;7.170;2022-08-21T01:10:04;9.77;;;8.77;;
5357;SDS011;2702;51.014;7.170;2022-08-21T01:12:31;15.60;;;9.23;;
5357;SDS011;2702;51.014;7.170;2022-08-21T01:14:58;9.70;;;8.80;;
5357;SDS011;2702;51.014;7.170;2022-08-21T01:17:24;10.70;;;9.50;;
5357;SDS011;2702;51.014;7.170;2022-08-21T01:19:51;11.33;;;9.47;;
5357;SDS011;2702;51.014;7.170;2022-08-21T01:22:17;12.03;;;9.90;;
5357;SDS011;2702;51.014;7.170;2022-08-21T01:24:44;11.03;;;8.60;;
5357;SDS011;2702;51.014;7.170;2022-08-21T01:27:10;9.97;;;8.87;;
5357;SDS011;2702;51.014;7.170;2022-08-21T01:32:13;9.80;;;8.70;;
5357;SDS011;2702;51.014;7.170;2022-08-21T01:34:43;13.83;;;9.70;;
5357;SDS011;2702;51.014;7.170;2022-08-21T01:37:10;10.50;;;9.40;;
5357;SDS011;2702;51.014;7.170;2022-08-21T01:39:37;14.67;;;9.20;;
5357;SDS011;2702;51.014;7.170;2022-08-21T01:42:04;13.03;;;9.30;;
5357;SDS011;2702;51.014;7.170;2022-08-21T01:44:30;14.77;;;9.83;;
5357;SDS011;2702;51.014;7.170;2022-08-21T01:46:57;10.70;;;9.57;;
5357;SDS011;2702;51.014;7.170;2022-08-21T01:49:25;10.77;;;9.60;;
5357;SDS011;2702;51.014;7.170;2022-08-21T01:51:52;10.87;;;9.93;;
5357;SDS011;2702;51.014;7.170;2022-08-21T01:54:18;12.53;;;9.87;;
5357;SDS011;2702;51.014;7.170;2022-08-21T01:56:45;14.27;;;9.70;;
5357;SDS011;2702;51.014;7.170;2022-08-21T01:59:13;12.80;;;10.17;;
5357;SDS011;2702;51.014;7.170;2022-08-21T02:01:39;11.33;;;10.23;;
5357;SDS011;2702;51.014;7.170;2022-08-21T02:04:06;12.70;;;10.70;;
5357;SDS011;2702;51.014;7.170;2022-08-21T02:06:34;12.43;;;9.87;;
5357;SDS011;2702;51.014;7.170;2022-08-21T02:09:00;10.63;;;9.63;;
5357;SDS011;2702;51.014;7.170;2022-08-21T02:11:30;10.57;;;9.57;;
5357;SDS011;2702;51.014;7.170;2022-08-21T02:13:58;15.27;;;11.27;;
5357;SDS011;2702;51.014;7.170;2022-08-21T02:16:23;10.77;;;9.73;;
5357;SDS011;2702;51.014;7.170;2022-08-21T02:18:50;11.37;;;10.17;;
5357;SDS011;2702;51.014;7.170;2022-08-21T02:21:16;11.37;;;10.17;;
5357;SDS011;2702;51.014;7.170;2022-08-21T02:23:42;13.87;;;10.87;;
5357;SDS011;2702;51.014;7.170;2022-08-21T02:26:09;13.20;;;9.53;;
5357;SDS011;2702;51.014;7.170;2022-08-21T02:28:36;12.67;;;10.57;;
5357;SDS011;2702;51.014;7.170;2022-08-21T02:31:04;12.53;;;10.83;;
5357;SDS011;2702;51.014;7.170;2022-08-21T02:33:31;14.33;;;10.73;;
5357;SDS011;2702;51.014;7.170;2022-08-21T02:35:57;13.47;;;11.10;;
5357;SDS011;2702;51.014;7.170;2022-08-21T02:38:25;12.00;;;10.70;;
5357;SDS011;2702;51.014;7.170;2022-08-21T02:40:53;10.97;;;9.97;;
5357;SDS011;2702;51.014;7.170;2022-08-21T02:43:21;11.33;;;9.50;;
5357;SDS011;2702;51.014;7.170;2022-08-21T02:45:49;12.70;;;11.60;;
5357;SDS011;2702;51.014;7.170;2022-08-21T02:48:19;11.30;;;10.10;;
5357;SDS011;2702;51.014;7.170;2022-08-21T02:50:47;11.83;;;10.50;;
5357;SDS011;2702;51.014;7.170;2022-08-21T02:53:19;17.07;;;11.57;;
5357;SDS011;2702;51.014;7.170;2022-08-21T02:55:46;13.70;;;11.40;;
5357;SDS011;2702;51.014;7.170;2022-08-21T02:58:14;13.93;;;10.83;;
5357;SDS011;2702;51.014;7.170;2022-08-21T03:00:43;12.50;;;11.30;;
5357;SDS011;2702;51.014;7.170;2022-08-21T03:03:10;19.50;;;12.30;;
5357;SDS011;2702;51.014;7.170;2022-08-21T03:05:37;11.70;;;10.43;;
5357;SDS011;2702;51.014;7.170;2022-08-21T03:08:04;12.93;;;11.30;;
5357;SDS011;2702;51.014;7.170;2022-08-21T03:10:36;15.27;;;11.20;;
5357;SDS011;2702;51.014;7.170;2022-08-21T03:13:07;10.63;;;9.60;;
5357;SDS011;2702;51.014;7.170;2022-08-21T03:15:33;11.13;;;10.00;;
5357;SDS011;2702;51.014;7.170;2022-08-21T03:17:59;11.13;;;10.00;;
5357;SDS011;2702;51.014;7.170;2022-08-21T03:20:28;12.70;;;11.40;;
5357;SDS011;2702;51.014;7.170;2022-08-21T03:22:57;11.80;;;10.60;;
5357;SDS011;2702;51.014;7.170;2022-08-21T03:25:24;11.70;;;10.60;;
5357;SDS011;2702;51.014;7.170;2022-08-21T03:27:51;10.43;;;9.37;;
5357;SDS011;2702;51.014;7.170;2022-08-21T03:30:18;14.87;;;10.80;;
5357;SDS011;2702;51.014;7.170;2022-08-21T03:32:46;13.47;;;11.20;;
5357;SDS011;2702;51.014;7.170;2022-08-21T03:35:12;11.50;;;10.13;;
5357;SDS011;2702;51.014;7.170;2022-08-21T03:37:39;16.23;;;10.47;;
5357;SDS011;2702;51.014;7.170;2022-08-21T03:40:06;11.70;;;10.60;;
5357;SDS011;2702;51.014;7.170;2022-08-21T03:42:33;11.80;;;10.70;;
5357;SDS011;2702;51.014;7.170;2022-08-21T03:45:00;14.13;;;12.00;;
5357;SDS011;2702;51.014;7.170;2022-08-21T03:47:25;13.93;;;12.00;;
5357;SDS011;2702;51.014;7.170;2022-08-21T03:49:51;15.27;;;12.10;;
5357;SDS011;2702;51.014;7.170;2022-08-21T03:52:17;12.70;;;11.30;;
5357;SDS011;2702;51.014;7.170;2022-08-21T03:54:44;12.90;;;10.57;;
5357;SDS011;2702;51.014;7.170;2022-08-21T03:57:10;11.33;;;10.13;;
5357;SDS011;2702;51.014;7.170;2022-08-21T03:59:37;11.43;;;10.37;;
5357;SDS011;2702;51.014;7.170;2022-08-21T04:02:05;10.90;;;9.90;;
5357;SDS011;2702;51.014;7.170;2022-08-21T04:04:32;13.50;;;12.13;;
5357;SDS011;2702;51.014;7.170;2022-08-21T04:06:59;12.10;;;10.90;;
5357;SDS011;2702;51.014;7.170;2022-08-21T04:09:25;12.63;;;11.43;;
5357;SDS011;2702;51.014;7.170;2022-08-21T04:11:51;12.40;;;11.00;;
5357;SDS011;2702;51.014;7.170;2022-08-21T04:14:17;16.30;;;12.97;;
5357;SDS011;2702;51.014;7.170;2022-08-21T04:16:44;13.60;;;12.20;;
5357;SDS011;2702;51.014;7.170;2022-08-21T04:19:11;14.20;;;11.90;;
5357;SDS011;2702;51.014;7.170;2022-08-21T04:21:41;13.83;;;12.43;;
5357;SDS011;2702;51.014;7.170;2022-08-21T04:24:08;11.50;;;10.40;;
5357;SDS011;2702;51.014;7.170;2022-08-21T04:26:36;12.07;;;10.80;;
5357;SDS011;2702;51.014;7.170;2022-08-21T04:29:03;17.27;;;13.47;;
5357;SDS011;2702;51.014;7.170;2022-08-21T04:31:31;14.37;;;12.97;;
5357;SDS011;2702;51.014;7.170;2022-08-21T04:33:59;14.70;;;13.07;;
5357;SDS011;2702;51.014;7.170;2022-08-21T04:36:25;15.00;;;11.87;;
5357;SDS011;2702;51.014;7.170;2022-08-21T04:38:51;12.57;;;11.17;;
5357;SDS011;2702;51.014;7.170;2022-08-21T04:41:17;14.10;;;12.60;;
5357;SDS011;2702;51.014;7.170;2022-08-21T04:43:43;13.47;;;11.83;;
5357;SDS011;2702;51.014;7.170;2022-08-21T04:46:09;13.30;;;12.00;;
5357;SDS011;2702;51.014;7.170;2022-08-21T04:48:35;14.40;;;11.90;;
5357;SDS011;2702;51.014;7.170;2022-08-21T04:51:03;14.27;;;11.50;;
5357;SDS011;2702;51.014;7.170;2022-08-21T04:53:39;14.00;;;12.80;;
5357;SDS011;2702;51.014;7.170;2022-08-21T04:56:22;13.43;;;12.10;;
5357;SDS011;2702;51.014;7.170;2022-08-21T04:58:52;12.80;;;11.43;;
5357;SDS011;2702;51.014;7.170;2022-08-21T05:01:22;13.53;;;12.13;;
5357;SDS011;2702;51.014;7.170;2022-08-21T05:03:52;16.33;;;12.97;;
5357;SDS011;2702;51.014;7.170;2022-08-21T05:06:22;14.20;;;12.40;;
5357;SDS011;2702;51.014;7.170;2022-08-21T05:08:49;14.73;;;12.90;;
5357;SDS011;2702;51.014;7.170;2022-08-21T05:11:18;15.73;;;13.00;;
5357;SDS011;2702;51.014;7.170;2022-08-21T05:13:45;15.80;;;13.30;;
5357;SDS011;2702;51.014;7.170;2022-08-21T05:16:12;14.83;;;13.20;;
5357;SDS011;2702;51.014;7.170;2022-08-21T05:18:37;13.97;;;12.30;;
5357;SDS011;2702;51.014;7.170;2022-08-21T05:21:03;17.10;;;14.80;;
5357;SDS011;2702;51.014;7.170;2022-08-21T05:23:30;13.87;;;12.37;;
5357;SDS011;2702;51.014;7.170;2022-08-21T05:25:56;14.33;;;12.77;;
5357;SDS011;2702;51.014;7.170;2022-08-21T05:28:22;15.43;;;13.73;;
5357;SDS011;2702;51.014;7.170;2022-08-21T05:30:48;13.23;;;12.03;;
5357;SDS011;2702;51.014;7.170;2022-08-21T05:33:14;13.30;;;11.40;;
5357;SDS011;2702;51.014;7.170;2022-08-21T05:35:40;14.10;;;12.40;;
5357;SDS011;2702;51.014;7.170;2022-08-21T05:38:06;13.23;;;11.93;;
5357;SDS011;2702;51.014;7.170;2022-08-21T05:40:33;20.00;;;13.57;;
5357;SDS011;2702;51.014;7.170;2022-08-21T05:42:59;14.67;;;13.37;;
5357;SDS011;2702;51.014;7.170;2022-08-21T05:45:27;12.83;;;11.60;;
5357;SDS011;2702;51.014;7.170;2022-08-21T05:47:57;13.10;;;11.90;;
5357;SDS011;2702;51.014;7.170;2022-08-21T05:50:30;16.07;;;12.10;;
5357;SDS011;2702;51.014;7.170;2022-08-21T05:52:56;14.77;;;13.27;;
5357;SDS011;2702;51.014;7.170;2022-08-21T05:55:22;13.83;;;12.50;;
5357;SDS011;2702;51.014;7.170;2022-08-21T05:57:48;14.93;;;13.60;;
5357;SDS011;2702;51.014;7.170;2022-08-21T06:00:14;14.73;;;12.43;;
5357;SDS011;2702;51.014;7.170;2022-08-21T06:02:41;14.20;;;11.80;;
5357;SDS011;2702;51.014;7.170;2022-08-21T06:05:07;12.80;;;11.70;;
5357;SDS011;2702;51.014;7.170;2022-08-21T06:07:33;12.93;;;11.73;;
5357;SDS011;2702;51.014;7.170;2022-08-21T06:09:59;13.20;;;11.70;;
5357;SDS011;2702;51.014;7.170;2022-08-21T06:12:26;16.47;;;12.77;;
5357;SDS011;2702;51.014;7.170;2022-08-21T06:14:52;14.07;;;12.57;;
5357;SDS011;2702;51.014;7.170;2022-08-21T06:17:18;13.23;;;11.33;;
5357;SDS011;2702;51.014;7.170;2022-08-21T06:19:44;14.03;;;12.83;;
5357;SDS011;2702;51.014;7.170;2022-08-21T06:22:10;13.50;;;11.90;;
5357;SDS011;2702;51.014;7.170;2022-08-21T06:24:35;13.57;;;11.37;;
5357;SDS011;2702;51.014;7.170;2022-08-21T06:27:07;13.83;;;12.43;;
5357;SDS011;2702;51.014;7.170;2022-08-21T06:29:33;13.07;;;11.73;;
5357;SDS011;2702;51.014;7.170;2022-08-21T06:31:59;15.03;;;12.03;;
5357;SDS011;2702;51.014;7.170;2022-08-21T06:34:26;17.20;;;13.10;;
5357;SDS011;2702;51.014;7.170;2022-08-21T06:36:52;13.50;;;11.60;;
5357;SDS011;2702;51.014;7.170;2022-08-21T06:39:18;12.37;;;11.27;;
5357;SDS011;2702;51.014;7.170;2022-08-21T06:41:44;12.40;;;11.17;;
5357;SDS011;2702;51.014;7.170;2022-08-21T06:44:10;12.83;;;11.53;;
5357;SDS011;2702;51.014;7.170;2022-08-21T06:46:36;14.37;;;10.97;;
5357;SDS011;2702;51.014;7.170;2022-08-21T06:49:02;12.37;;;10.57;;
5357;SDS011;2702;51.014;7.170;2022-08-21T06:51:28;13.53;;;11.13;;
5357;SDS011;2702;51.014;7.170;2022-08-21T06:53:54;10.43;;;9.53;;
5357;SDS011;2702;51.014;7.170;2022-08-21T06:56:20;11.30;;;10.20;;
5357;SDS011;2702;51.014;7.170;2022-08-21T06:58:46;12.63;;;10.23;;
5357;SDS011;2702;51.014;7.170;2022-08-21T07:01:13;11.90;;;10.57;;
5357;SDS011;2702;51.014;7.170;2022-08-21T07:03:39;11.30;;;9.40;;
5357;SDS011;2702;51.014;7.170;2022-08-21T07:06:07;10.53;;;9.17;;
5357;SDS011;2702;51.014;7.170;2022-08-21T07:08:35;11.43;;;9.67;;
5357;SDS011;2702;51.014;7.170;2022-08-21T07:11:03;9.23;;;8.43;;
5357;SDS011;2702;51.014;7.170;2022-08-21T07:13:34;10.47;;;8.73;;
5357;SDS011;2702;51.014;7.170;2022-08-21T07:16:00;9.97;;;8.27;;
5357;SDS011;2702;51.014;7.170;2022-08-21T07:18:26;10.13;;;8.10;;
5357;SDS011;2702;51.014;7.170;2022-08-21T07:20:52;7.57;;;6.77;;
5357;SDS011;2702;51.014;7.170;2022-08-21T07:23:22;8.20;;;7.40;;
5357;SDS011;2702;51.014;7.170;2022-08-21T07:25:55;9.77;;;7.37;;
5357;SDS011;2702;51.014;7.170;2022-08-21T07:28:21;9.53;;;7.07;;
5357;SDS011;2702;51.014;7.170;2022-08-21T07:30:51;8.43;;;6.97;;
5357;SDS011;2702;51.014;7.170;2022-08-21T07:33:19;7.73;;;6.90;;
5357;SDS011;2702;51.014;7.170;2022-08-21T07:35:45;11.63;;;7.37;;
5357;SDS011;2702;51.014;7.170;2022-08-21T07:38:11;11.10;;;7.03;;
5357;SDS011;2702;51.014;7.170;2022-08-21T07:40:37;7.83;;;7.03;;
5357;SDS011;2702;51.014;7.170;2022-08-21T07:43:03;8.90;;;8.10;;
5357;SDS011;2702;51.014;7.170;2022-08-21T07:45:29;12.80;;;7.77;;
5357;SDS011;2702;51.014;7.170;2022-08-21T07:47:56;8.13;;;7.37;;
5357;SDS011;2702;51.014;7.170;2022-08-21T07:50:22;9.87;;;7.13;;
5357;SDS011;2702;51.014;7.170;2022-08-21T07:52:48;10.60;;;6.80;;
5357;SDS011;2702;51.014;7.170;2022-08-21T07:55:16;7.60;;;6.53;;
5357;SDS011;2702;51.014;7.170;2022-08-21T07:57:48;10.20;;;7.10;;
5357;SDS011;2702;51.014;7.170;2022-08-21T08:00:16;7.17;;;6.33;;
5357;SDS011;2702;51.014;7.170;2022-08-21T08:02:46;7.30;;;6.20;;
5357;SDS011;2702;51.014;7.170;2022-08-21T08:05:18;8.30;;;6.37;;
5357;SDS011;2702;51.014;7.170;2022-08-21T08:07:46;7.13;;;5.93;;
5357;SDS011;2702;51.014;7.170;2022-08-21T08:10:15;8.73;;;5.23;;
5357;SDS011;2702;51.014;7.170;2022-08-21T08:12:42;6.80;;;5.80;;
5357;SDS011;2702;51.014;7.170;2022-08-21T08:15:10;7.77;;;5.33;;
5357;SDS011;2702;51.014;7.170;2022-08-21T08:17:39;5.73;;;5.00;;
5357;SDS011;2702;51.014;7.170;2022-08-21T08:20:06;6.30;;;4.93;;
5357;SDS011;2702;51.014;7.170;2022-08-21T08:22:35;7.93;;;5.40;;
5357;SDS011;2702;51.014;7.170;2022-08-21T08:25:03;9.03;;;6.10;;
5357;SDS011;2702;51.014;7.170;2022-08-21T08:27:30;7.17;;;4.90;;
5357;SDS011;2702;51.014;7.170;2022-08-21T08:29:56;5.20;;;4.07;;
5357;SDS011;2702;51.014;7.170;2022-08-21T08:32:22;7.00;;;4.73;;
5357;SDS011;2702;51.014;7.170;2022-08-21T08:34:49;6.50;;;4.13;;
5357;SDS011;2702;51.014;7.170;2022-08-21T08:37:16;10.10;;;5.13;;
5357;SDS011;2702;51.014;7.170;2022-08-21T08:39:44;8.27;;;4.13;;
5357;SDS011;2702;51.014;7.170;2022-08-21T08:42:20;3.97;;;3.57;;
5357;SDS011;2702;51.014;7.170;2022-08-21T08:44:55;6.53;;;4.23;;
5357;SDS011;2702;51.014;7.170;2022-08-21T08:47:25;5.43;;;3.50;;
5357;SDS011;2702;51.014;7.170;2022-08-21T08:50:11;6.33;;;3.30;;
5357;SDS011;2702;51.014;7.170;2022-08-21T08:52:45;5.60;;;3.67;;
5357;SDS011;2702;51.014;7.170;2022-08-21T08:55:26;4.93;;;3.40;;
5357;SDS011;2702;51.014;7.170;2022-08-21T08:58:02;5.30;;;3.50;;
5357;SDS011;2702;51.014;7.170;2022-08-21T09:00:29;6.40;;;3.90;;
5357;SDS011;2702;51.014;7.170;2022-08-21T09:02:57;3.83;;;3.43;;
5357;SDS011;2702;51.014;7.170;2022-08-21T09:05:29;5.73;;;3.83;;
5357;SDS011;2702;51.014;7.170;2022-08-21T09:08:14;7.00;;;3.63;;
5357;SDS011;2702;51.014;7.170;2022-08-21T09:11:01;4.60;;;3.50;;
5357;SDS011;2702;51.014;7.170;2022-08-21T09:13:47;4.03;;;3.03;;
5357;SDS011;2702;51.014;7.170;2022-08-21T09:24:46;6.80;;;4.30;;
5357;SDS011;2702;51.014;7.170;2022-08-21T09:27:34;5.57;;;3.97;;
5357;SDS011;2702;51.014;7.170;2022-08-21T09:30:02;7.13;;;4.17;;
5357;SDS011;2702;51.014;7.170;2022-08-21T09:32:31;6.90;;;3.37;;
5357;SDS011;2702;51.014;7.170;2022-08-21T09:37:44;8.43;;;3.10;;
5357;SDS011;2702;51.014;7.170;2022-08-21T09:43:06;5.27;;;2.60;;
5357;SDS011;2702;51.014;7.170;2022-08-21T09:48:45;6.00;;;2.90;;
5357;SDS011;2702;51.014;7.170;2022-08-21T09:51:14;7.23;;;3.00;;
5357;SDS011;2702;51.014;7.170;2022-08-21T09:53:48;5.77;;;2.93;;
5357;SDS011;2702;51.014;7.170;2022-08-21T09:59:40;6.00;;;2.47;;
5357;SDS011;2702;51.014;7.170;2022-08-21T10:05:03;4.40;;;2.20;;
5357;SDS011;2702;51.014;7.170;2022-08-21T10:07:36;4.00;;;2.53;;
5357;SDS011;2702;51.014;7.170;2022-08-21T10:21:36;3.73;;;1.80;;
5357;SDS011;2702;51.014;7.170;2022-08-21T10:24:09;4.37;;;2.00;;
5357;SDS011;2702;51.014;7.170;2022-08-21T10:26:56;3.50;;;2.20;;
5357;SDS011;2702;51.014;7.170;2022-08-21T10:29:55;3.80;;;2.10;;
5357;SDS011;2702;51.014;7.170;2022-08-21T10:35:14;2.50;;;1.80;;
5357;SDS011;2702;51.014;7.170;2022-08-21T10:43:43;5.90;;;2.07;;
5357;SDS011;2702;51.014;7.170;2022-08-21T10:46:42;4.40;;;2.13;;
5357;SDS011;2702;51.014;7.170;2022-08-21T10:49:31;8.70;;;2.83;;
5357;SDS011;2702;51.014;7.170;2022-08-21T10:54:56;4.97;;;1.93;;
5357;SDS011;2702;51.014;7.170;2022-08-21T10:57:42;3.43;;;2.27;;
5357;SDS011;2702;51.014;7.170;2022-08-21T11:00:18;6.17;;;2.30;;
5357;SDS011;2702;51.014;7.170;2022-08-21T11:02:51;8.13;;;2.40;;
5357;SDS011;2702;51.014;7.170;2022-08-21T11:05:31;3.90;;;1.90;;
5357;SDS011;2702;51.014;7.170;2022-08-21T11:08:08;5.83;;;2.30;;
5357;SDS011;2702;51.014;7.170;2022-08-21T11:10:50;4.10;;;1.90;;
5357;SDS011;2702;51.014;7.170;2022-08-21T11:13:26;6.90;;;2.83;;
5357;SDS011;2702;51.014;7.170;2022-08-21T11:27:16;4.60;;;2.30;;
5357;SDS011;2702;51.014;7.170;2022-08-21T11:29:45;4.77;;;1.63;;
5357;SDS011;2702;51.014;7.170;2022-08-21T11:37:49;4.67;;;2.00;;
5357;SDS011;2702;51.014;7.170;2022-08-21T11:43:24;4.13;;;1.70;;
5357;SDS011;2702;51.014;7.170;2022-08-21T11:45:52;3.47;;;1.70;;
5357;SDS011;2702;51.014;7.170;2022-08-21T11:48:34;3.80;;;1.60;;
5357;SDS011;2702;51.014;7.170;2022-08-21T11:51:13;3.30;;;1.90;;
5357;SDS011;2702;51.014;7.170;2022-08-21T11:53:49;5.37;;;1.70;;
5357;SDS011;2702;51.014;7.170;2022-08-21T11:56:45;5.90;;;1.83;;
5357;SDS011;2702;51.014;7.170;2022-08-21T11:59:17;4.43;;;1.80;;
5357;SDS011;2702;51.014;7.170;2022-08-21T12:01:48;3.80;;;1.50;;
5357;SDS011;2702;51.014;7.170;2022-08-21T12:06:54;3.80;;;2.13;;
5357;SDS011;2702;51.014;7.170;2022-08-21T12:11:51;5.60;;;2.00;;
5357;SDS011;2702;51.014;7.170;2022-08-21T12:14:41;4.47;;;2.13;;
5357;SDS011;2702;51.014;7.170;2022-08-21T12:17:16;1.93;;;1.70;;
5357;SDS011;2702;51.014;7.170;2022-08-21T12:20:15;6.90;;;1.87;;
5357;SDS011;2702;51.014;7.170;2022-08-21T12:22:53;4.23;;;1.63;;
5357;SDS011;2702;51.014;7.170;2022-08-21T12:25:26;4.73;;;1.77;;
5357;SDS011;2702;51.014;7.170;2022-08-21T12:28:22;2.60;;;1.50;;
5357;SDS011;2702;51.014;7.170;2022-08-21T12:30:49;3.57;;;1.70;;
5357;SDS011;2702;51.014;7.170;2022-08-21T12:33:49;2.13;;;1.37;;
5357;SDS011;2702;51.014;7.170;2022-08-21T12:36:15;2.23;;;1.30;;
5357;SDS011;2702;51.014;7.170;2022-08-21T12:38:49;3.50;;;1.70;;
5357;SDS011;2702;51.014;7.170;2022-08-21T12:41:26;3.30;;;1.43;;
5357;SDS011;2702;51.014;7.170;2022-08-21T12:46:37;2.70;;;1.60;;
5357;SDS011;2702;51.014;7.170;2022-08-21T12:49:15;2.43;;;1.23;;
5357;SDS011;2702;51.014;7.170;2022-08-21T12:51:55;2.13;;;1.53;;
5357;SDS011;2702;51.014;7.170;2022-08-21T12:54:42;2.80;;;1.50;;
5357;SDS011;2702;51.014;7.170;2022-08-21T12:57:17;4.57;;;1.80;;
5357;SDS011;2702;51.014;7.170;2022-08-21T12:59:51;1.97;;;1.30;;
5357;SDS011;2702;51.014;7.170;2022-08-21T13:02:20;2.53;;;1.73;;
5357;SDS011;2702;51.014;7.170;2022-08-21T13:04:49;5.50;;;1.57;;
5357;SDS011;2702;51.014;7.170;2022-08-21T13:07:19;4.23;;;1.70;;
5357;SDS011;2702;51.014;7.170;2022-08-21T13:09:53;2.70;;;1.40;;
5357;SDS011;2702;51.014;7.170;2022-08-21T13:12:24;3.80;;;1.67;;
5357;SDS011;2702;51.014;7.170;2022-08-21T13:14:51;3.17;;;1.30;;
5357;SDS011;2702;51.014;7.170;2022-08-21T13:17:21;6.27;;;1.60;;
5357;SDS011;2702;51.014;7.170;2022-08-21T13:19:56;2.17;;;1.40;;
5357;SDS011;2702;51.014;7.170;2022-08-21T13:22:28;4.20;;;1.77;;
5357;SDS011;2702;51.014;7.170;2022-08-21T13:24:55;3.03;;;1.47;;
5357;SDS011;2702;51.014;7.170;2022-08-21T13:27:26;2.80;;;1.43;;
5357;SDS011;2702;51.014;7.170;2022-08-21T13:30:06;4.00;;;1.53;;
5357;SDS011;2702;51.014;7.170;2022-08-21T13:32:50;4.57;;;1.63;;
5357;SDS011;2702;51.014;7.170;2022-08-21T13:35:23;4.50;;;1.40;;
5357;SDS011;2702;51.014;7.170;2022-08-21T13:37:53;3.00;;;1.50;;
5357;SDS011;2702;51.014;7.170;2022-08-21T13:40:26;3.10;;;1.70;;
5357;SDS011;2702;51.014;7.170;2022-08-21T13:42:57;3.30;;;1.70;;
5357;SDS011;2702;51.014;7.170;2022-08-21T13:45:26;4.13;;;1.60;;
5357;SDS011;2702;51.014;7.170;2022-08-21T13:47:56;1.90;;;1.40;;
5357;SDS011;2702;51.014;7.170;2022-08-21T13:50:25;2.73;;;1.80;;
5357;SDS011;2702;51.014;7.170;2022-08-21T13:52:59;2.73;;;1.73;;
5357;SDS011;2702;51.014;7.170;2022-08-21T13:55:38;2.20;;;1.30;;
5357;SDS011;2702;51.014;7.170;2022-08-21T13:58:07;2.67;;;1.50;;
5357;SDS011;2702;51.014;7.170;2022-08-21T14:00:43;1.80;;;1.53;;
5357;SDS011;2702;51.014;7.170;2022-08-21T14:03:13;2.80;;;1.60;;
5357;SDS011;2702;51.014;7.170;2022-08-21T14:05:54;3.87;;;1.40;;
5357;SDS011;2702;51.014;7.170;2022-08-21T14:08:34;3.43;;;1.50;;
5357;SDS011;2702;51.014;7.170;2022-08-21T14:11:09;4.10;;;1.87;;
5357;SDS011;2702;51.014;7.170;2022-08-21T14:13:50;6.87;;;1.80;;
5357;SDS011;2702;51.014;7.170;2022-08-21T14:16:24;3.30;;;1.47;;
5357;SDS011;2702;51.014;7.170;2022-08-21T14:21:27;3.23;;;1.60;;
5357;SDS011;2702;51.014;7.170;2022-08-21T14:24:10;1.83;;;1.57;;
5357;SDS011;2702;51.014;7.170;2022-08-21T14:27:01;1.73;;;1.63;;
5357;SDS011;2702;51.014;7.170;2022-08-21T14:29:31;3.20;;;1.50;;
5357;SDS011;2702;51.014;7.170;2022-08-21T14:32:10;3.43;;;1.60;;
5357;SDS011;2702;51.014;7.170;2022-08-21T14:34:52;2.30;;;1.40;;
5357;SDS011;2702;51.014;7.170;2022-08-21T14:37:18;2.07;;;1.40;;
5357;SDS011;2702;51.014;7.170;2022-08-21T14:39:44;2.37;;;1.60;;
5357;SDS011;2702;51.014;7.170;2022-08-21T14:42:10;3.00;;;1.47;;
5357;SDS011;2702;51.014;7.170;2022-08-21T14:44:38;1.63;;;1.27;;
5357;SDS011;2702;51.014;7.170;2022-08-21T14:47:03;1.70;;;1.30;;
5357;SDS011;2702;51.014;7.170;2022-08-21T14:49:30;3.70;;;1.67;;
5357;SDS011;2702;51.014;7.170;2022-08-21T14:51:57;2.43;;;1.90;;
5357;SDS011;2702;51.014;7.170;2022-08-21T14:54:24;4.50;;;2.03;;
5357;SDS011;2702;51.014;7.170;2022-08-21T14:56:56;2.53;;;1.77;;
5357;SDS011;2702;51.014;7.170;2022-08-21T14:59:23;2.57;;;1.80;;
5357;SDS011;2702;51.014;7.170;2022-08-21T15:01:50;3.10;;;1.83;;
5357;SDS011;2702;51.014;7.170;2022-08-21T15:04:17;3.60;;;1.73;;
5357;SDS011;2702;51.014;7.170;2022-08-21T15:06:44;2.80;;;1.57;;
5357;SDS011;2702;51.014;7.170;2022-08-21T15:09:10;2.67;;;1.50;;
5357;SDS011;2702;51.014;7.170;2022-08-21T15:11:36;2.20;;;1.50;;
5357;SDS011;2702;51.014;7.170;2022-08-21T15:14:03;2.83;;;1.57;;
5357;SDS011;2702;51.014;7.170;2022-08-21T15:16:31;4.00;;;1.67;;
5357;SDS011;2702;51.014;7.170;2022-08-21T15:18:59;2.17;;;1.50;;
5357;SDS011;2702;51.014;7.170;2022-08-21T15:21:25;3.17;;;1.77;;
5357;SDS011;2702;51.014;7.170;2022-08-21T15:23:51;2.37;;;1.23;;
5357;SDS011;2702;51.014;7.170;2022-08-21T15:26:16;3.20;;;1.73;;
5357;SDS011;2702;51.014;7.170;2022-08-21T15:28:43;2.60;;;1.47;;
5357;SDS011;2702;51.014;7.170;2022-08-21T15:31:09;3.50;;;1.60;;
5357;SDS011;2702;51.014;7.170;2022-08-21T15:33:36;2.90;;;1.70;;
5357;SDS011;2702;51.014;7.170;2022-08-21T15:36:02;2.37;;;1.30;;
5357;SDS011;2702;51.014;7.170;2022-08-21T15:38:28;2.30;;;1.37;;
5357;SDS011;2702;51.014;7.170;2022-08-21T15:40:54;2.13;;;1.50;;
5357;SDS011;2702;51.014;7.170;2022-08-21T15:43:27;2.80;;;1.20;;
5357;SDS011;2702;51.014;7.170;2022-08-21T15:45:57;1.43;;;1.30;;
5357;SDS011;2702;51.014;7.170;2022-08-21T15:48:25;4.10;;;1.40;;
5357;SDS011;2702;51.014;7.170;2022-08-21T15:50:52;3.43;;;1.50;;
5357;SDS011;2702;51.014;7.170;2022-08-21T15:53:18;4.30;;;1.37;;
5357;SDS011;2702;51.014;7.170;2022-08-21T15:55:44;2.20;;;1.20;;
5357;SDS011;2702;51.014;7.170;2022-08-21T15:58:16;2.20;;;1.50;;
5357;SDS011;2702;51.014;7.170;2022-08-21T16:00:45;1.87;;;1.40;;
5357;SDS011;2702;51.014;7.170;2022-08-21T16:03:12;2.40;;;1.20;;
5357;SDS011;2702;51.014;7.170;2022-08-21T16:05:42;3.40;;;1.27;;
5357;SDS011;2702;51.014;7.170;2022-08-21T16:08:09;4.00;;;1.80;;
5357;SDS011;2702;51.014;7.170;2022-08-21T16:10:36;2.70;;;1.23;;
5357;SDS011;2702;51.014;7.170;2022-08-21T16:13:04;2.90;;;1.30;;
5357;SDS011;2702;51.014;7.170;2022-08-21T16:15:32;2.60;;;1.47;;
5357;SDS011;2702;51.014;7.170;2022-08-21T16:17:58;4.40;;;1.27;;
5357;SDS011;2702;51.014;7.170;2022-08-21T16:20:26;2.37;;;1.30;;
5357;SDS011;2702;51.014;7.170;2022-08-21T16:22:53;2.47;;;1.00;;
5357;SDS011;2702;51.014;7.170;2022-08-21T16:25:21;2.50;;;1.20;;
5357;SDS011;2702;51.014;7.170;2022-08-21T16:27:49;2.87;;;1.20;;
5357;SDS011;2702;51.014;7.170;2022-08-21T16:30:19;2.27;;;1.20;;
5357;SDS011;2702;51.014;7.170;2022-08-21T16:32:45;2.50;;;1.30;;
5357;SDS011;2702;51.014;7.170;2022-08-21T16:35:14;3.83;;;1.33;;
5357;SDS011;2702;51.014;7.170;2022-08-21T16:37:43;2.63;;;1.20;;
5357;SDS011;2702;51.014;7.170;2022-08-21T16:40:09;2.93;;;1.27;;